createdAt,value
2022-12-06T00:01:35.267Z,4.02
2022-12-06T00:04:08.517Z,4.04
2022-12-06T00:06:44.277Z,4.06
2022-12-06T00:09:34.520Z,4.07
2022-12-06T00:12:02.243Z,4.09
2022-12-06T00:14:30.037Z,4.11
2022-12-06T00:16:57.757Z,4.13
2022-12-06T00:19:25.846Z,4.16
2022-12-06T00:21:54.431Z,4.18
2022-12-06T00:24:23.316Z,4.20
2022-12-06T00:26:51.246Z,4.20
2022-12-06T00:29:23.895Z,4.23
2022-12-06T00:31:51.919Z,4.27
2022-12-06T00:34:19.851Z,4.29
2022-12-06T00:36:48.884Z,4.32
2022-12-06T00:39:18.103Z,4.35
2022-12-06T00:41:45.930Z,4.36
2022-12-06T00:44:13.853Z,4.37
2022-12-06T00:46:41.537Z,4.38
2022-12-06T00:49:09.799Z,4.37
2022-12-06T00:51:40.324Z,4.36
2022-12-06T00:54:08.752Z,4.33
2022-12-06T00:56:36.913Z,4.32
2022-12-06T00:59:05.526Z,4.30
2022-12-06T01:01:36.183Z,4.30
2022-12-06T01:04:06.606Z,4.30
2022-12-06T01:06:36.713Z,4.33
2022-12-06T01:09:09.784Z,4.32
2022-12-06T01:11:38.285Z,4.33
2022-12-06T01:14:06.540Z,4.34
2022-12-06T01:16:35.198Z,4.35
2022-12-06T01:19:05.464Z,4.36
2022-12-06T01:21:33.204Z,4.39
2022-12-06T01:24:03.838Z,4.38
2022-12-06T01:26:33.893Z,4.39
2022-12-06T01:29:02.504Z,4.37
2022-12-06T01:31:37.230Z,4.35
2022-12-06T01:34:09.908Z,4.34
2022-12-06T01:36:37.628Z,4.33
2022-12-06T01:39:08.267Z,4.33
2022-12-06T01:41:37.116Z,4.31
2022-12-06T01:44:05.230Z,4.27
2022-12-06T01:46:42.129Z,4.26
2022-12-06T01:49:18.305Z,4.23
2022-12-06T01:51:52.135Z,4.20
2022-12-06T01:54:20.899Z,4.17
2022-12-06T01:56:49.343Z,4.16
2022-12-06T01:59:17.221Z,4.15
2022-12-06T02:01:46.414Z,4.16
2022-12-06T02:04:15.456Z,4.15
2022-12-06T02:06:44.210Z,4.18
2022-12-06T02:09:12.733Z,4.19
2022-12-06T02:11:41.504Z,4.21
2022-12-06T02:14:13.200Z,4.23
2022-12-06T02:17:10.166Z,4.24
2022-12-06T02:20:16.249Z,4.21
2022-12-06T02:23:00.984Z,4.18
2022-12-06T02:25:55.886Z,4.18
2022-12-06T02:28:52.003Z,4.18
2022-12-06T02:31:25.233Z,4.20
2022-12-06T02:34:02.800Z,4.22
2022-12-06T02:36:42.612Z,4.24
2022-12-06T02:39:24.704Z,4.25
2022-12-06T02:50:35.488Z,4.18
2022-12-06T02:53:04.507Z,4.21
2022-12-06T02:55:32.868Z,4.26
2022-12-06T02:58:00.934Z,4.28
2022-12-06T03:00:29.331Z,4.32
2022-12-06T03:03:17.622Z,4.35
2022-12-06T03:06:02.928Z,4.36
2022-12-06T03:08:42.749Z,4.37
2022-12-06T03:11:10.983Z,4.39
2022-12-06T03:13:55.771Z,4.40
2022-12-06T03:16:30.247Z,4.38
2022-12-06T03:19:04.889Z,4.37
2022-12-06T03:21:57.692Z,4.36
2022-12-06T03:24:27.910Z,4.36
2022-12-06T03:26:57.168Z,4.36
2022-12-06T03:29:26.728Z,4.36
2022-12-06T03:31:56.276Z,4.36
2022-12-06T03:34:31.403Z,4.37
2022-12-06T03:36:59.911Z,4.38
2022-12-06T03:39:39.460Z,4.38
2022-12-06T03:42:07.745Z,4.37
2022-12-06T03:44:35.747Z,4.38
2022-12-06T03:47:16.029Z,4.40
2022-12-06T03:49:59.379Z,4.40
2022-12-06T03:52:28.966Z,4.37
2022-12-06T03:54:56.869Z,4.36
2022-12-06T03:57:24.690Z,4.36
2022-12-06T03:59:52.457Z,4.36
2022-12-06T04:02:20.105Z,4.36
2022-12-06T04:04:49.376Z,4.36
2022-12-06T04:07:21.200Z,4.35
2022-12-06T04:10:04.298Z,4.32
2022-12-06T04:12:52.372Z,4.30
2022-12-06T04:15:21.536Z,4.27
2022-12-06T04:18:08.520Z,4.24
2022-12-06T04:21:18.399Z,4.22
2022-12-06T04:23:49.400Z,4.18
2022-12-06T04:26:20.302Z,4.17
2022-12-06T04:29:07.391Z,4.18
2022-12-06T04:31:54.668Z,4.15
2022-12-06T04:34:41.337Z,4.12
2022-12-06T04:37:28.385Z,4.10
2022-12-06T04:39:56.115Z,4.10
2022-12-06T04:42:42.458Z,4.10
2022-12-06T04:45:10.734Z,4.09
2022-12-06T04:47:38.498Z,4.10
2022-12-06T04:50:07.115Z,4.11
2022-12-06T04:52:36.219Z,4.12
2022-12-06T04:55:05.290Z,4.14
2022-12-06T04:57:33.141Z,4.14
2022-12-06T05:00:01.226Z,4.13
2022-12-06T05:02:29.340Z,4.14
2022-12-06T05:04:57.421Z,4.17
2022-12-06T05:07:25.196Z,4.19
2022-12-06T05:09:52.902Z,4.20
2022-12-06T05:12:20.653Z,4.21
2022-12-06T05:14:48.348Z,4.22
2022-12-06T05:17:16.016Z,4.23
2022-12-06T05:19:43.682Z,4.22
2022-12-06T05:22:11.363Z,4.22
2022-12-06T05:24:39.098Z,4.21
2022-12-06T05:27:06.772Z,4.23
2022-12-06T05:29:34.459Z,4.23
2022-12-06T05:32:02.346Z,4.24
2022-12-06T05:34:30.150Z,4.27
2022-12-06T05:36:57.777Z,4.30
2022-12-06T05:39:25.657Z,4.34
2022-12-06T05:41:53.420Z,4.37
2022-12-06T05:44:21.119Z,4.40
2022-12-06T05:46:48.883Z,4.36
2022-12-06T05:49:16.698Z,4.31
2022-12-06T05:51:44.500Z,4.29
2022-12-06T05:54:12.446Z,4.29
2022-12-06T05:56:40.118Z,4.28
2022-12-06T05:59:07.953Z,4.30
2022-12-06T06:01:35.701Z,4.32
2022-12-06T06:04:03.633Z,4.33
2022-12-06T06:06:31.452Z,4.35
2022-12-06T06:08:59.193Z,4.37
2022-12-06T06:11:26.969Z,4.38
2022-12-06T06:13:54.679Z,4.37
2022-12-06T06:16:22.581Z,4.35
2022-12-06T06:18:50.458Z,4.32
2022-12-06T06:21:18.179Z,4.30
2022-12-06T06:23:45.872Z,4.27
2022-12-06T06:26:13.659Z,4.23
2022-12-06T06:28:41.430Z,4.19
2022-12-06T06:31:14.995Z,4.18
2022-12-06T06:33:50.898Z,4.17
2022-12-06T06:36:18.648Z,4.19
2022-12-06T06:38:46.335Z,4.20
2022-12-06T06:41:14.014Z,4.22
2022-12-06T06:43:41.761Z,4.22
2022-12-06T06:46:10.074Z,4.22
2022-12-06T06:48:39.702Z,4.23
2022-12-06T06:51:14.938Z,4.22
2022-12-06T06:53:42.789Z,4.19
2022-12-06T06:56:11.305Z,4.16
2022-12-06T06:58:39.122Z,4.15
2022-12-06T07:01:08.597Z,4.16
2022-12-06T07:03:36.437Z,4.19
2022-12-06T07:06:08.373Z,4.19
2022-12-06T07:08:37.213Z,4.20
2022-12-06T07:11:05.591Z,4.21
2022-12-06T07:13:33.746Z,4.22
2022-12-06T07:16:06.975Z,4.21
2022-12-06T07:18:36.943Z,4.18
2022-12-06T07:21:07.385Z,4.13
2022-12-06T07:23:36.239Z,4.08
2022-12-06T07:26:09.647Z,4.03
2022-12-06T07:28:39.033Z,3.99
2022-12-06T07:31:09.192Z,3.96
2022-12-06T07:33:37.188Z,3.95
2022-12-06T07:36:13.827Z,3.94
2022-12-06T07:38:43.391Z,3.93
2022-12-06T07:41:31.896Z,3.96
2022-12-06T07:44:20.320Z,3.98
2022-12-06T07:46:48.588Z,3.98
2022-12-06T07:49:17.773Z,4.00
2022-12-06T07:51:45.943Z,4.03
2022-12-06T07:54:14.860Z,4.05
2022-12-06T07:56:43.285Z,4.06
2022-12-06T07:59:11.664Z,4.09
2022-12-06T08:01:39.699Z,4.12
2022-12-06T08:04:07.915Z,4.17
2022-12-06T08:06:35.804Z,4.17
2022-12-06T08:09:03.702Z,4.22
2022-12-06T08:11:31.540Z,4.24
2022-12-06T08:13:59.347Z,4.25
2022-12-06T08:16:27.428Z,4.27
2022-12-06T08:18:55.733Z,4.28
2022-12-06T08:21:26.126Z,4.25
2022-12-06T08:23:54.896Z,4.23
2022-12-06T08:26:23.977Z,4.23
2022-12-06T08:28:51.878Z,4.24
2022-12-06T08:31:22.698Z,4.24
2022-12-06T08:33:50.677Z,4.24
2022-12-06T08:36:22.008Z,4.24
2022-12-06T08:38:51.736Z,4.24
2022-12-06T08:41:53.048Z,4.26
2022-12-06T08:44:21.839Z,4.29
2022-12-06T08:46:50.187Z,4.34
2022-12-06T08:49:18.026Z,4.40
2022-12-06T08:51:47.107Z,4.43
2022-12-06T08:54:18.288Z,4.46
2022-12-06T08:56:46.248Z,4.49
2022-12-06T08:59:14.621Z,4.54
2022-12-06T09:01:42.710Z,4.57
2022-12-06T09:04:11.444Z,4.60
2022-12-06T09:06:40.886Z,4.64
2022-12-06T09:09:10.021Z,4.68
2022-12-06T09:11:39.037Z,4.72
2022-12-06T09:14:09.361Z,4.75
2022-12-06T09:16:37.752Z,4.78
2022-12-06T09:19:05.464Z,4.78
2022-12-06T09:21:34.575Z,4.80
2022-12-06T09:24:04.727Z,4.82
2022-12-06T09:26:33.001Z,4.85
2022-12-06T09:29:00.762Z,4.90
2022-12-06T09:31:28.641Z,4.94
2022-12-06T09:33:56.413Z,4.95
2022-12-06T09:36:27.042Z,4.98
2022-12-06T09:39:05.418Z,4.99
2022-12-06T09:42:01.543Z,4.98
2022-12-06T09:44:55.355Z,4.98
2022-12-06T09:47:58.625Z,4.98
2022-12-06T09:50:42.246Z,4.97
2022-12-06T09:53:47.137Z,4.98
2022-12-06T09:56:25.644Z,4.97
2022-12-06T09:58:56.919Z,5.00
2022-12-06T10:01:46.382Z,5.02
2022-12-06T10:04:39.340Z,5.06
2022-12-06T10:07:27.534Z,5.06
2022-12-06T10:10:07.852Z,5.09
2022-12-06T10:12:45.076Z,5.11
2022-12-06T10:15:23.013Z,5.11
2022-12-06T10:17:56.763Z,5.09
2022-12-06T10:20:34.410Z,5.07
2022-12-06T10:23:04.974Z,5.02
2022-12-06T10:25:46.760Z,4.98
2022-12-06T10:28:20.142Z,4.93
2022-12-06T10:30:53.548Z,4.93
2022-12-06T10:33:35.683Z,4.91
2022-12-06T10:36:05.830Z,4.88
2022-12-06T10:38:59.472Z,4.88
2022-12-06T10:41:42.139Z,4.88
2022-12-06T10:44:24.525Z,4.89
2022-12-06T10:47:13.065Z,4.88
2022-12-06T10:50:04.850Z,4.85
2022-12-06T10:52:36.649Z,4.86
2022-12-06T10:55:10.804Z,4.86
2022-12-06T10:58:04.108Z,4.84
2022-12-06T11:00:38.470Z,4.83
2022-12-06T11:03:18.869Z,4.85
2022-12-06T11:05:51.727Z,4.82
2022-12-06T11:08:30.468Z,4.81
2022-12-06T11:10:59.678Z,4.78
2022-12-06T11:13:45.548Z,4.77
2022-12-06T11:16:19.481Z,4.77
2022-12-06T11:18:48.671Z,4.78
2022-12-06T11:21:37.567Z,4.81
2022-12-06T11:24:20.959Z,4.81
2022-12-06T11:26:48.719Z,4.79
2022-12-06T11:29:16.814Z,4.82
2022-12-06T11:31:50.789Z,4.86
2022-12-06T11:34:23.258Z,4.90
2022-12-06T11:36:58.250Z,4.93
2022-12-06T11:39:29.910Z,4.95
2022-12-06T11:42:00.972Z,5.00
2022-12-06T11:44:36.347Z,5.05
2022-12-06T11:47:05.588Z,5.09
2022-12-06T11:49:42.568Z,5.13
2022-12-06T11:52:34.043Z,5.16
2022-12-06T11:55:17.032Z,5.18
2022-12-06T11:57:49.721Z,5.19
2022-12-06T12:00:22.936Z,5.21
2022-12-06T12:02:53.433Z,5.23
2022-12-06T12:05:26.735Z,5.24
2022-12-06T12:07:58.351Z,5.20
2022-12-06T12:10:31.216Z,5.17
2022-12-06T12:13:30.910Z,5.14
2022-12-06T12:16:06.819Z,5.11
2022-12-06T12:18:37.345Z,5.12
2022-12-06T12:21:06.669Z,5.15
2022-12-06T12:23:43.371Z,5.18
2022-12-06T12:26:16.106Z,5.21
2022-12-06T12:28:45.950Z,5.23
2022-12-06T12:31:19.686Z,5.24
2022-12-06T12:33:47.818Z,5.25
2022-12-06T12:36:26.033Z,5.26
2022-12-06T12:38:56.825Z,5.26
2022-12-06T12:41:30.588Z,5.27
2022-12-06T12:47:00.685Z,5.25
2022-12-06T12:49:34.391Z,5.25
2022-12-06T12:52:23.119Z,5.24
2022-12-06T12:55:22.015Z,5.24
2022-12-06T12:57:55.085Z,5.22
2022-12-06T13:00:25.631Z,5.24
2022-12-06T13:03:00.730Z,5.27
2022-12-06T13:05:35.167Z,5.27
2022-12-06T13:08:20.189Z,5.29
2022-12-06T13:10:55.481Z,5.29
2022-12-06T13:13:41.365Z,5.30
2022-12-06T13:16:13.084Z,5.30
2022-12-06T13:18:56.132Z,5.29
2022-12-06T13:21:32.385Z,5.27
2022-12-06T13:24:22.802Z,5.25
2022-12-06T13:26:58.606Z,5.23
2022-12-06T13:29:39.819Z,5.19
2022-12-06T13:32:23.194Z,5.20
2022-12-06T13:34:55.212Z,5.19
2022-12-06T13:37:34.160Z,5.19
2022-12-06T13:40:04.521Z,5.19
2022-12-06T13:42:38.643Z,5.19
2022-12-06T13:45:45.934Z,5.19
2022-12-06T13:48:26.189Z,5.15
2022-12-06T13:51:01.582Z,5.13
2022-12-06T13:53:34.027Z,5.12
2022-12-06T13:56:28.831Z,5.11
2022-12-06T13:58:58.220Z,5.10
2022-12-06T14:01:49.330Z,5.10
2022-12-06T14:09:44.527Z,5.08
2022-12-06T14:12:20.502Z,5.08
2022-12-06T14:14:56.668Z,5.08
2022-12-06T14:17:59.752Z,5.08
2022-12-06T14:20:27.897Z,5.07
2022-12-06T14:22:56.303Z,5.07
2022-12-06T14:25:28.351Z,5.08
2022-12-06T14:28:13.109Z,5.10
2022-12-06T14:30:41.354Z,5.08
2022-12-06T14:33:21.860Z,5.07
2022-12-06T14:35:52.481Z,5.04
2022-12-06T14:38:31.336Z,5.02
2022-12-06T14:41:17.980Z,5.02
2022-12-06T14:43:49.217Z,5.01
2022-12-06T14:46:17.841Z,5.03
2022-12-06T14:49:07.933Z,5.03
2022-12-06T14:51:38.674Z,5.03
2022-12-06T14:54:29.115Z,5.02
2022-12-06T14:56:56.996Z,5.01
2022-12-06T15:00:03.073Z,4.98
2022-12-06T15:02:28.948Z,4.97
2022-12-06T15:04:58.879Z,4.95
2022-12-06T15:07:53.315Z,4.94
2022-12-06T15:10:25.681Z,4.94
2022-12-06T15:12:56.403Z,4.95
2022-12-06T15:15:42.585Z,4.96
2022-12-06T15:18:23.578Z,4.97
2022-12-06T15:20:53.604Z,4.96
2022-12-06T15:23:31.619Z,4.96
2022-12-06T15:25:59.466Z,4.95
2022-12-06T15:28:27.265Z,4.94
2022-12-06T15:30:55.074Z,4.94
2022-12-06T15:33:24.531Z,4.93
2022-12-06T15:35:52.354Z,4.91
2022-12-06T15:38:20.400Z,4.89
2022-12-06T15:40:50.409Z,4.86
2022-12-06T15:43:18.112Z,4.85
2022-12-06T15:45:45.928Z,4.84
2022-12-06T15:48:13.967Z,4.84
2022-12-06T15:50:41.727Z,4.86
2022-12-06T15:53:18.461Z,4.88
2022-12-06T15:55:46.536Z,4.88
2022-12-06T15:58:14.419Z,4.85
2022-12-06T16:00:43.084Z,4.85
2022-12-06T16:03:11.280Z,4.84
2022-12-06T16:05:39.374Z,4.89
2022-12-06T16:08:07.669Z,4.90
2022-12-06T16:11:09.701Z,4.90
2022-12-06T16:13:23.776Z,4.89
2022-12-06T16:15:52.766Z,4.89
2022-12-06T16:18:20.793Z,4.88
2022-12-06T16:20:48.981Z,4.88
2022-12-06T16:24:11.225Z,4.88
2022-12-06T16:26:28.369Z,4.85
2022-12-06T16:28:57.612Z,4.85
2022-12-06T16:31:26.113Z,4.86
2022-12-06T16:33:54.376Z,4.85
2022-12-06T16:36:29.528Z,4.84
2022-12-06T16:39:02.861Z,4.83
2022-12-06T16:41:35.974Z,4.82
2022-12-06T16:44:04.333Z,4.83
2022-12-06T16:46:37.238Z,4.84
2022-12-06T16:52:11.054Z,4.80
2022-12-06T16:54:42.063Z,4.78
2022-12-06T16:57:13.182Z,4.78
2022-12-06T16:59:43.168Z,4.78
2022-12-06T17:02:29.054Z,4.77
2022-12-06T17:05:06.657Z,4.76
2022-12-06T17:07:37.086Z,4.73
2022-12-06T17:10:07.879Z,4.74
2022-12-06T17:12:37.400Z,4.71
2022-12-06T17:15:07.493Z,4.76
2022-12-06T17:17:36.078Z,4.75
2022-12-06T17:20:08.262Z,4.72
2022-12-06T17:22:38.002Z,4.71
2022-12-06T17:25:06.958Z,4.68
2022-12-06T17:27:35.664Z,4.66
2022-12-06T17:30:07.080Z,4.65
2022-12-06T17:32:36.129Z,4.67
2022-12-06T17:35:05.005Z,4.66
2022-12-06T17:37:35.289Z,4.54
2022-12-06T17:40:04.682Z,4.61
2022-12-06T17:42:54.744Z,4.59
2022-12-06T17:45:24.916Z,4.55
2022-12-06T17:47:54.232Z,4.54
2022-12-06T17:50:22.871Z,4.54
2022-12-06T17:52:56.128Z,4.52
2022-12-06T17:55:25.077Z,4.50
2022-12-06T17:57:54.484Z,4.47
2022-12-06T18:00:23.669Z,4.45
2022-12-06T18:02:54.755Z,4.43
2022-12-06T18:05:23.294Z,4.41
2022-12-06T18:07:54.294Z,4.42
2022-12-06T18:10:22.887Z,4.41
2022-12-06T18:12:51.375Z,4.36
2022-12-06T18:15:38.065Z,4.38
2022-12-06T18:18:06.876Z,4.33
2022-12-06T18:20:35.242Z,4.30
2022-12-06T18:23:03.486Z,4.29
2022-12-06T18:25:33.101Z,4.26
2022-12-06T18:28:01.778Z,4.24
2022-12-06T18:30:32.813Z,4.22
2022-12-06T18:33:05.826Z,4.21
2022-12-06T18:35:36.421Z,4.18
2022-12-06T18:38:04.954Z,4.17
2022-12-06T18:40:33.870Z,4.16
2022-12-06T18:43:01.649Z,4.16
2022-12-06T18:45:29.513Z,4.15
2022-12-06T18:47:57.370Z,4.14
2022-12-06T18:50:25.270Z,4.13
2022-12-06T18:52:53.041Z,4.12
2022-12-06T18:55:20.676Z,4.13
2022-12-06T18:57:48.540Z,4.13
2022-12-06T19:00:16.909Z,4.14
2022-12-06T19:02:44.686Z,4.13
2022-12-06T19:05:13.209Z,4.14
2022-12-06T19:07:41.108Z,4.14
2022-12-06T19:10:09.131Z,4.14
2022-12-06T19:12:36.911Z,4.15
2022-12-06T19:15:05.169Z,4.13
2022-12-06T19:17:32.898Z,4.12
2022-12-06T19:20:00.773Z,4.12
2022-12-06T19:22:28.843Z,4.12
2022-12-06T19:24:57.080Z,4.12
2022-12-06T19:27:24.877Z,4.14
2022-12-06T19:29:52.715Z,4.12
2022-12-06T19:32:20.470Z,4.08
2022-12-06T19:34:48.140Z,4.05
2022-12-06T19:37:17.524Z,4.05
2022-12-06T19:39:45.895Z,4.04
2022-12-06T19:42:32.381Z,4.03
2022-12-06T19:45:00.138Z,3.98
2022-12-06T19:47:27.877Z,3.94
2022-12-06T19:49:57.056Z,3.90
2022-12-06T19:52:30.583Z,3.87
2022-12-06T19:54:58.671Z,3.85
2022-12-06T19:57:26.455Z,3.83
2022-12-06T19:59:55.824Z,3.82
2022-12-06T20:02:23.609Z,3.83
2022-12-06T20:04:51.705Z,3.83
2022-12-06T20:07:19.424Z,3.80
2022-12-06T20:09:47.081Z,3.76
2022-12-06T20:12:14.923Z,3.74
2022-12-06T20:14:48.040Z,3.69
2022-12-06T20:17:18.344Z,3.64
2022-12-06T20:19:46.922Z,3.60
2022-12-06T20:22:16.502Z,3.60
2022-12-06T20:24:44.966Z,3.59
2022-12-06T20:27:12.703Z,3.58
2022-12-06T20:29:40.578Z,3.59
2022-12-06T20:32:10.263Z,3.57
2022-12-06T20:34:38.111Z,3.56
2022-12-06T20:37:07.005Z,3.54
2022-12-06T20:39:35.947Z,3.54
2022-12-06T20:42:06.845Z,3.50
2022-12-06T20:44:35.616Z,3.46
2022-12-06T20:47:04.141Z,3.41
2022-12-06T20:49:32.338Z,3.35
2022-12-06T20:52:02.186Z,3.31
2022-12-06T20:54:30.386Z,3.28
2022-12-06T20:56:58.492Z,3.26
2022-12-06T20:59:26.812Z,3.24
2022-12-06T21:01:55.052Z,3.21
2022-12-06T21:04:23.332Z,3.17
2022-12-06T21:06:51.210Z,3.14
2022-12-06T21:09:19.093Z,3.11
2022-12-06T21:11:47.625Z,3.08
2022-12-06T21:14:16.491Z,3.07
2022-12-06T21:16:44.439Z,3.05
2022-12-06T21:19:15.725Z,3.03
2022-12-06T21:21:53.275Z,3.02
2022-12-06T21:24:22.407Z,2.98
2022-12-06T21:26:50.293Z,2.93
2022-12-06T21:29:21.631Z,2.90
2022-12-06T21:31:52.124Z,2.86
2022-12-06T21:34:19.912Z,2.83
2022-12-06T21:36:47.679Z,2.83
2022-12-06T21:39:15.354Z,2.80
2022-12-06T21:41:43.239Z,2.78
2022-12-06T21:44:11.024Z,2.75
2022-12-06T21:46:39.055Z,2.71
2022-12-06T21:49:07.024Z,2.68
2022-12-06T21:51:34.776Z,2.65
2022-12-06T21:54:03.127Z,2.61
2022-12-06T21:56:31.202Z,2.60
2022-12-06T21:59:01.932Z,2.59
2022-12-06T22:01:31.239Z,2.58
2022-12-06T22:04:02.196Z,2.57
2022-12-06T22:06:31.593Z,2.54
2022-12-06T22:09:02.067Z,2.51
2022-12-06T22:11:30.341Z,2.49
2022-12-06T22:13:59.663Z,2.49
2022-12-06T22:16:28.681Z,2.47
2022-12-06T22:18:57.659Z,2.46
2022-12-06T22:21:27.542Z,2.43
2022-12-06T22:23:58.127Z,2.41
2022-12-06T22:26:30.444Z,2.39
2022-12-06T22:28:59.169Z,2.37
2022-12-06T22:31:33.522Z,2.35
2022-12-06T22:34:02.292Z,2.34
2022-12-06T22:36:31.004Z,2.33
2022-12-06T22:39:00.976Z,2.31
2022-12-06T22:41:29.491Z,2.30
2022-12-06T22:44:00.725Z,2.27
2022-12-06T22:46:30.056Z,2.26
2022-12-06T22:48:59.276Z,2.24
2022-12-06T22:51:36.014Z,2.23
2022-12-06T22:54:12.609Z,2.21
2022-12-06T22:56:47.299Z,2.19
2022-12-06T22:59:17.189Z,2.19
2022-12-06T23:01:45.187Z,2.19
2022-12-06T23:04:13.121Z,2.18
2022-12-06T23:06:40.876Z,2.18
2022-12-06T23:09:08.691Z,2.18
2022-12-06T23:11:36.906Z,2.17
2022-12-06T23:14:04.825Z,2.17
2022-12-06T23:16:32.797Z,2.16
2022-12-06T23:19:01.887Z,2.14
2022-12-06T23:21:31.817Z,2.13
2022-12-06T23:24:02.068Z,2.13
2022-12-06T23:26:33.062Z,2.13
2022-12-06T23:29:01.157Z,2.14
2022-12-06T23:31:31.876Z,2.14
2022-12-06T23:34:08.489Z,2.14
2022-12-06T23:36:36.304Z,2.15
2022-12-06T23:39:05.198Z,2.15
2022-12-06T23:41:34.010Z,2.16
2022-12-06T23:44:02.102Z,2.16
2022-12-06T23:46:32.423Z,2.15
2022-12-06T23:49:00.961Z,2.14
2022-12-06T23:51:34.080Z,2.14
2022-12-06T23:54:03.954Z,2.13
2022-12-06T23:56:37.492Z,2.12
2022-12-06T23:59:07.863Z,2.10
